sensor_id;sensor_type;location;lat;lon;timestamp;P1;durP1;ratioP1;P2;durP2;ratioP2
61344;SDS011;47216;42.656;23.232;2022-11-20T00:00:36;4.17;;;1.87;;
61344;SDS011;47216;42.656;23.232;2022-11-20T00:03:03;11.83;;;4.20;;
61344;SDS011;47216;42.656;23.232;2022-11-20T00:05:33;3.37;;;1.63;;
61344;SDS011;47216;42.656;23.232;2022-11-20T00:07:59;2.97;;;1.60;;
61344;SDS011;47216;42.656;23.232;2022-11-20T00:10:26;8.07;;;1.97;;
61344;SDS011;47216;42.656;23.232;2022-11-20T00:12:53;1.57;;;1.20;;
61344;SDS011;47216;42.656;23.232;2022-11-20T00:15:20;4.00;;;1.33;;
61344;SDS011;47216;42.656;23.232;2022-11-20T00:17:46;5.50;;;1.80;;
61344;SDS011;47216;42.656;23.232;2022-11-20T00:20:13;3.17;;;1.10;;
61344;SDS011;47216;42.656;23.232;2022-11-20T00:22:42;4.50;;;1.10;;
61344;SDS011;47216;42.656;23.232;2022-11-20T00:25:09;2.40;;;0.97;;
61344;SDS011;47216;42.656;23.232;2022-11-20T00:27:36;2.47;;;1.20;;
61344;SDS011;47216;42.656;23.232;2022-11-20T00:30:04;2.80;;;1.27;;
61344;SDS011;47216;42.656;23.232;2022-11-20T00:32:31;0.80;;;0.80;;
61344;SDS011;47216;42.656;23.232;2022-11-20T00:34:58;3.43;;;1.33;;
61344;SDS011;47216;42.656;23.232;2022-11-20T00:37:25;1.50;;;1.00;;
61344;SDS011;47216;42.656;23.232;2022-11-20T00:39:54;3.10;;;1.20;;
61344;SDS011;47216;42.656;23.232;2022-11-20T00:42:20;3.27;;;1.57;;
61344;SDS011;47216;42.656;23.232;2022-11-20T00:44:47;3.40;;;1.10;;
61344;SDS011;47216;42.656;23.232;2022-11-20T00:47:14;3.27;;;1.07;;
61344;SDS011;47216;42.656;23.232;2022-11-20T00:49:41;4.83;;;1.10;;
61344;SDS011;47216;42.656;23.232;2022-11-20T00:52:07;4.87;;;1.30;;
61344;SDS011;47216;42.656;23.232;2022-11-20T00:54:35;3.17;;;1.30;;
61344;SDS011;47216;42.656;23.232;2022-11-20T00:57:03;4.87;;;1.30;;
61344;SDS011;47216;42.656;23.232;2022-11-20T00:59:29;6.87;;;1.10;;
61344;SDS011;47216;42.656;23.232;2022-11-20T01:01:59;7.77;;;1.40;;
61344;SDS011;47216;42.656;23.232;2022-11-20T01:04:26;5.53;;;1.27;;
61344;SDS011;47216;42.656;23.232;2022-11-20T01:06:53;2.63;;;1.20;;
61344;SDS011;47216;42.656;23.232;2022-11-20T01:09:20;3.83;;;1.40;;
61344;SDS011;47216;42.656;23.232;2022-11-20T01:11:47;4.33;;;1.33;;
61344;SDS011;47216;42.656;23.232;2022-11-20T01:14:16;2.50;;;1.17;;
61344;SDS011;47216;42.656;23.232;2022-11-20T01:16:45;4.63;;;1.30;;
61344;SDS011;47216;42.656;23.232;2022-11-20T01:19:15;7.13;;;3.47;;
61344;SDS011;47216;42.656;23.232;2022-11-20T01:21:43;5.10;;;1.60;;
61344;SDS011;47216;42.656;23.232;2022-11-20T01:24:11;1.33;;;1.13;;
61344;SDS011;47216;42.656;23.232;2022-11-20T01:26:40;1.63;;;0.70;;
61344;SDS011;47216;42.656;23.232;2022-11-20T01:29:09;3.23;;;1.30;;
61344;SDS011;47216;42.656;23.232;2022-11-20T01:31:41;1.87;;;1.00;;
61344;SDS011;47216;42.656;23.232;2022-11-20T01:34:09;2.10;;;0.90;;
61344;SDS011;47216;42.656;23.232;2022-11-20T01:36:38;1.97;;;1.30;;
61344;SDS011;47216;42.656;23.232;2022-11-20T01:39:06;1.70;;;1.10;;
61344;SDS011;47216;42.656;23.232;2022-11-20T01:41:36;3.80;;;1.47;;
61344;SDS011;47216;42.656;23.232;2022-11-20T01:44:21;1.97;;;0.90;;
61344;SDS011;47216;42.656;23.232;2022-11-20T01:46:52;2.20;;;1.30;;
61344;SDS011;47216;42.656;23.232;2022-11-20T01:49:23;3.70;;;1.00;;
61344;SDS011;47216;42.656;23.232;2022-11-20T01:51:54;2.33;;;0.97;;
61344;SDS011;47216;42.656;23.232;2022-11-20T01:54:25;2.93;;;1.00;;
61344;SDS011;47216;42.656;23.232;2022-11-20T01:56:57;1.17;;;0.93;;
61344;SDS011;47216;42.656;23.232;2022-11-20T01:59:26;5.10;;;1.77;;
61344;SDS011;47216;42.656;23.232;2022-11-20T02:01:57;2.10;;;1.07;;
61344;SDS011;47216;42.656;23.232;2022-11-20T02:04:24;2.37;;;1.30;;
61344;SDS011;47216;42.656;23.232;2022-11-20T02:06:53;1.60;;;1.10;;
61344;SDS011;47216;42.656;23.232;2022-11-20T02:09:25;2.60;;;1.07;;
61344;SDS011;47216;42.656;23.232;2022-11-20T02:11:52;2.33;;;0.80;;
61344;SDS011;47216;42.656;23.232;2022-11-20T02:14:19;2.30;;;0.90;;
61344;SDS011;47216;42.656;23.232;2022-11-20T02:16:47;2.57;;;1.17;;
61344;SDS011;47216;42.656;23.232;2022-11-20T02:19:19;1.40;;;1.03;;
61344;SDS011;47216;42.656;23.232;2022-11-20T02:21:54;1.23;;;0.90;;
61344;SDS011;47216;42.656;23.232;2022-11-20T02:24:28;2.97;;;1.10;;
61344;SDS011;47216;42.656;23.232;2022-11-20T02:26:56;1.33;;;0.83;;
61344;SDS011;47216;42.656;23.232;2022-11-20T02:29:36;1.60;;;0.70;;
61344;SDS011;47216;42.656;23.232;2022-11-20T02:32:05;1.47;;;1.00;;
61344;SDS011;47216;42.656;23.232;2022-11-20T02:34:32;4.43;;;1.17;;
61344;SDS011;47216;42.656;23.232;2022-11-20T02:36:59;2.10;;;1.00;;
61344;SDS011;47216;42.656;23.232;2022-11-20T02:39:27;5.60;;;1.23;;
61344;SDS011;47216;42.656;23.232;2022-11-20T02:41:54;2.83;;;1.30;;
61344;SDS011;47216;42.656;23.232;2022-11-20T02:44:22;2.70;;;0.90;;
61344;SDS011;47216;42.656;23.232;2022-11-20T02:46:49;5.00;;;1.17;;
61344;SDS011;47216;42.656;23.232;2022-11-20T02:49:15;3.77;;;1.43;;
61344;SDS011;47216;42.656;23.232;2022-11-20T02:51:42;2.40;;;1.17;;
61344;SDS011;47216;42.656;23.232;2022-11-20T02:54:09;1.90;;;1.00;;
61344;SDS011;47216;42.656;23.232;2022-11-20T02:56:38;2.90;;;1.00;;
61344;SDS011;47216;42.656;23.232;2022-11-20T02:59:05;2.87;;;1.30;;
61344;SDS011;47216;42.656;23.232;2022-11-20T03:01:32;6.43;;;1.20;;
61344;SDS011;47216;42.656;23.232;2022-11-20T03:03:59;6.03;;;1.23;;
61344;SDS011;47216;42.656;23.232;2022-11-20T03:06:26;1.83;;;1.43;;
61344;SDS011;47216;42.656;23.232;2022-11-20T03:08:52;2.10;;;1.10;;
61344;SDS011;47216;42.656;23.232;2022-11-20T03:11:19;4.57;;;1.50;;
61344;SDS011;47216;42.656;23.232;2022-11-20T03:13:47;2.33;;;0.93;;
61344;SDS011;47216;42.656;23.232;2022-11-20T03:16:15;2.67;;;1.17;;
61344;SDS011;47216;42.656;23.232;2022-11-20T03:18:43;7.63;;;1.67;;
61344;SDS011;47216;42.656;23.232;2022-11-20T03:21:11;1.57;;;0.80;;
61344;SDS011;47216;42.656;23.232;2022-11-20T03:23:39;4.87;;;1.27;;
61344;SDS011;47216;42.656;23.232;2022-11-20T03:26:07;1.87;;;0.77;;
61344;SDS011;47216;42.656;23.232;2022-11-20T03:28:35;8.40;;;1.67;;
61344;SDS011;47216;42.656;23.232;2022-11-20T03:31:06;4.47;;;1.00;;
61344;SDS011;47216;42.656;23.232;2022-11-20T03:33:34;3.00;;;0.80;;
61344;SDS011;47216;42.656;23.232;2022-11-20T03:36:01;3.20;;;1.13;;
61344;SDS011;47216;42.656;23.232;2022-11-20T03:38:29;4.80;;;1.10;;
61344;SDS011;47216;42.656;23.232;2022-11-20T03:41:00;1.93;;;1.03;;
61344;SDS011;47216;42.656;23.232;2022-11-20T03:43:28;2.57;;;0.80;;
61344;SDS011;47216;42.656;23.232;2022-11-20T03:45:55;2.93;;;1.00;;
61344;SDS011;47216;42.656;23.232;2022-11-20T03:48:23;2.27;;;1.20;;
61344;SDS011;47216;42.656;23.232;2022-11-20T03:50:50;1.83;;;0.90;;
61344;SDS011;47216;42.656;23.232;2022-11-20T03:53:17;3.10;;;1.30;;
61344;SDS011;47216;42.656;23.232;2022-11-20T03:55:44;3.33;;;1.20;;
61344;SDS011;47216;42.656;23.232;2022-11-20T03:58:11;4.40;;;0.97;;
61344;SDS011;47216;42.656;23.232;2022-11-20T04:00:38;3.10;;;1.10;;
61344;SDS011;47216;42.656;23.232;2022-11-20T04:03:05;3.60;;;1.30;;
61344;SDS011;47216;42.656;23.232;2022-11-20T04:05:34;3.43;;;1.13;;
61344;SDS011;47216;42.656;23.232;2022-11-20T04:08:00;1.83;;;1.20;;
61344;SDS011;47216;42.656;23.232;2022-11-20T04:10:27;2.57;;;1.07;;
61344;SDS011;47216;42.656;23.232;2022-11-20T04:12:54;4.90;;;0.97;;
61344;SDS011;47216;42.656;23.232;2022-11-20T04:15:21;2.90;;;1.07;;
61344;SDS011;47216;42.656;23.232;2022-11-20T04:17:48;2.50;;;1.23;;
61344;SDS011;47216;42.656;23.232;2022-11-20T04:20:15;1.73;;;0.90;;
61344;SDS011;47216;42.656;23.232;2022-11-20T04:22:43;0.90;;;0.80;;
61344;SDS011;47216;42.656;23.232;2022-11-20T04:25:10;2.83;;;0.90;;
61344;SDS011;47216;42.656;23.232;2022-11-20T04:27:37;4.97;;;1.80;;
61344;SDS011;47216;42.656;23.232;2022-11-20T04:30:04;1.53;;;0.90;;
61344;SDS011;47216;42.656;23.232;2022-11-20T04:32:31;2.33;;;1.00;;
61344;SDS011;47216;42.656;23.232;2022-11-20T04:34:58;1.40;;;1.10;;
61344;SDS011;47216;42.656;23.232;2022-11-20T04:37:25;0.57;;;0.57;;
61344;SDS011;47216;42.656;23.232;2022-11-20T04:39:53;1.13;;;0.77;;
61344;SDS011;47216;42.656;23.232;2022-11-20T04:42:20;1.73;;;0.90;;
61344;SDS011;47216;42.656;23.232;2022-11-20T04:44:56;2.00;;;0.97;;
61344;SDS011;47216;42.656;23.232;2022-11-20T04:47:23;1.47;;;0.87;;
61344;SDS011;47216;42.656;23.232;2022-11-20T04:49:50;2.27;;;0.90;;
61344;SDS011;47216;42.656;23.232;2022-11-20T04:52:16;2.17;;;1.10;;
61344;SDS011;47216;42.656;23.232;2022-11-20T04:54:43;8.00;;;6.37;;
61344;SDS011;47216;42.656;23.232;2022-11-20T04:57:12;4.20;;;0.93;;
61344;SDS011;47216;42.656;23.232;2022-11-20T04:59:39;1.37;;;0.90;;
61344;SDS011;47216;42.656;23.232;2022-11-20T05:02:06;2.40;;;1.03;;
61344;SDS011;47216;42.656;23.232;2022-11-20T05:04:33;2.33;;;1.10;;
61344;SDS011;47216;42.656;23.232;2022-11-20T05:07:00;1.20;;;0.90;;
61344;SDS011;47216;42.656;23.232;2022-11-20T05:09:26;1.70;;;1.00;;
61344;SDS011;47216;42.656;23.232;2022-11-20T05:11:53;1.63;;;1.37;;
61344;SDS011;47216;42.656;23.232;2022-11-20T05:14:21;1.83;;;0.80;;
61344;SDS011;47216;42.656;23.232;2022-11-20T05:16:48;3.57;;;2.03;;
61344;SDS011;47216;42.656;23.232;2022-11-20T05:19:15;1.77;;;0.90;;
61344;SDS011;47216;42.656;23.232;2022-11-20T05:21:42;2.90;;;1.30;;
61344;SDS011;47216;42.656;23.232;2022-11-20T05:24:08;1.70;;;1.00;;
61344;SDS011;47216;42.656;23.232;2022-11-20T05:26:35;2.80;;;1.10;;
61344;SDS011;47216;42.656;23.232;2022-11-20T05:29:02;1.93;;;0.90;;
61344;SDS011;47216;42.656;23.232;2022-11-20T05:31:31;4.17;;;1.57;;
61344;SDS011;47216;42.656;23.232;2022-11-20T05:33:57;3.63;;;1.57;;
61344;SDS011;47216;42.656;23.232;2022-11-20T05:36:24;5.80;;;2.47;;
61344;SDS011;47216;42.656;23.232;2022-11-20T05:38:51;1.43;;;0.90;;
61344;SDS011;47216;42.656;23.232;2022-11-20T05:41:18;10.03;;;4.40;;
61344;SDS011;47216;42.656;23.232;2022-11-20T05:43:46;7.83;;;3.57;;
61344;SDS011;47216;42.656;23.232;2022-11-20T05:46:15;5.50;;;1.70;;
61344;SDS011;47216;42.656;23.232;2022-11-20T05:48:45;5.57;;;2.47;;
61344;SDS011;47216;42.656;23.232;2022-11-20T05:51:13;1.67;;;1.00;;
61344;SDS011;47216;42.656;23.232;2022-11-20T05:53:41;3.10;;;0.80;;
61344;SDS011;47216;42.656;23.232;2022-11-20T05:56:09;1.13;;;0.90;;
61344;SDS011;47216;42.656;23.232;2022-11-20T05:58:38;4.47;;;1.40;;
61344;SDS011;47216;42.656;23.232;2022-11-20T06:01:05;3.80;;;1.47;;
61344;SDS011;47216;42.656;23.232;2022-11-20T06:03:33;3.07;;;0.87;;
61344;SDS011;47216;42.656;23.232;2022-11-20T06:06:02;5.37;;;1.30;;
61344;SDS011;47216;42.656;23.232;2022-11-20T06:08:30;4.93;;;1.53;;
61344;SDS011;47216;42.656;23.232;2022-11-20T06:10:57;2.43;;;1.20;;
61344;SDS011;47216;42.656;23.232;2022-11-20T06:13:24;2.90;;;1.00;;
61344;SDS011;47216;42.656;23.232;2022-11-20T06:15:51;3.10;;;0.80;;
61344;SDS011;47216;42.656;23.232;2022-11-20T06:18:19;0.80;;;0.73;;
61344;SDS011;47216;42.656;23.232;2022-11-20T06:20:46;1.67;;;0.80;;
61344;SDS011;47216;42.656;23.232;2022-11-20T06:23:14;2.60;;;1.10;;
61344;SDS011;47216;42.656;23.232;2022-11-20T06:25:42;1.90;;;0.80;;
61344;SDS011;47216;42.656;23.232;2022-11-20T06:28:09;1.77;;;0.77;;
61344;SDS011;47216;42.656;23.232;2022-11-20T06:30:36;2.07;;;0.87;;
61344;SDS011;47216;42.656;23.232;2022-11-20T06:33:03;2.70;;;0.93;;
61344;SDS011;47216;42.656;23.232;2022-11-20T06:35:30;2.03;;;0.97;;
61344;SDS011;47216;42.656;23.232;2022-11-20T06:37:57;1.33;;;1.13;;
61344;SDS011;47216;42.656;23.232;2022-11-20T06:40:25;2.80;;;1.03;;
61344;SDS011;47216;42.656;23.232;2022-11-20T06:42:53;2.17;;;1.10;;
61344;SDS011;47216;42.656;23.232;2022-11-20T06:45:20;0.97;;;0.50;;
61344;SDS011;47216;42.656;23.232;2022-11-20T06:47:47;1.73;;;0.83;;
61344;SDS011;47216;42.656;23.232;2022-11-20T06:50:14;1.73;;;0.77;;
61344;SDS011;47216;42.656;23.232;2022-11-20T06:52:40;2.07;;;1.13;;
61344;SDS011;47216;42.656;23.232;2022-11-20T06:55:07;0.77;;;0.70;;
61344;SDS011;47216;42.656;23.232;2022-11-20T06:57:36;1.87;;;1.03;;
61344;SDS011;47216;42.656;23.232;2022-11-20T07:00:03;2.13;;;0.90;;
61344;SDS011;47216;42.656;23.232;2022-11-20T07:02:30;3.03;;;1.10;;
61344;SDS011;47216;42.656;23.232;2022-11-20T07:04:57;2.13;;;1.00;;
61344;SDS011;47216;42.656;23.232;2022-11-20T07:07:24;6.20;;;2.30;;
61344;SDS011;47216;42.656;23.232;2022-11-20T07:09:50;1.37;;;0.80;;
61344;SDS011;47216;42.656;23.232;2022-11-20T07:12:17;1.83;;;1.20;;
61344;SDS011;47216;42.656;23.232;2022-11-20T07:14:45;2.03;;;1.10;;
61344;SDS011;47216;42.656;23.232;2022-11-20T07:17:12;1.60;;;1.00;;
61344;SDS011;47216;42.656;23.232;2022-11-20T07:19:39;2.67;;;1.70;;
61344;SDS011;47216;42.656;23.232;2022-11-20T07:22:07;2.90;;;1.70;;
61344;SDS011;47216;42.656;23.232;2022-11-20T07:24:34;3.93;;;1.70;;
61344;SDS011;47216;42.656;23.232;2022-11-20T07:27:01;1.70;;;1.10;;
61344;SDS011;47216;42.656;23.232;2022-11-20T07:29:29;1.63;;;1.20;;
61344;SDS011;47216;42.656;23.232;2022-11-20T07:31:57;3.87;;;1.20;;
61344;SDS011;47216;42.656;23.232;2022-11-20T07:34:24;2.37;;;1.10;;
61344;SDS011;47216;42.656;23.232;2022-11-20T07:36:51;1.10;;;1.00;;
61344;SDS011;47216;42.656;23.232;2022-11-20T07:39:18;4.87;;;1.30;;
61344;SDS011;47216;42.656;23.232;2022-11-20T07:41:44;3.17;;;1.30;;
61344;SDS011;47216;42.656;23.232;2022-11-20T07:44:11;3.80;;;1.17;;
61344;SDS011;47216;42.656;23.232;2022-11-20T07:46:38;4.07;;;1.40;;
61344;SDS011;47216;42.656;23.232;2022-11-20T07:49:06;3.70;;;1.20;;
61344;SDS011;47216;42.656;23.232;2022-11-20T07:51:33;1.87;;;0.80;;
61344;SDS011;47216;42.656;23.232;2022-11-20T07:54:00;2.80;;;1.03;;
61344;SDS011;47216;42.656;23.232;2022-11-20T07:56:27;6.47;;;1.30;;
61344;SDS011;47216;42.656;23.232;2022-11-20T07:58:53;4.30;;;1.37;;
61344;SDS011;47216;42.656;23.232;2022-11-20T08:01:20;3.03;;;1.23;;
61344;SDS011;47216;42.656;23.232;2022-11-20T08:03:47;2.17;;;1.20;;
61344;SDS011;47216;42.656;23.232;2022-11-20T08:06:15;4.27;;;1.03;;
61344;SDS011;47216;42.656;23.232;2022-11-20T08:08:43;2.47;;;1.13;;
61344;SDS011;47216;42.656;23.232;2022-11-20T08:11:10;3.27;;;1.30;;
61344;SDS011;47216;42.656;23.232;2022-11-20T08:13:54;5.33;;;1.07;;
61344;SDS011;47216;42.656;23.232;2022-11-20T08:16:39;2.07;;;0.80;;
61344;SDS011;47216;42.656;23.232;2022-11-20T08:19:06;4.23;;;1.50;;
61344;SDS011;47216;42.656;23.232;2022-11-20T08:21:35;5.57;;;1.10;;
61344;SDS011;47216;42.656;23.232;2022-11-20T08:24:02;3.10;;;0.87;;
61344;SDS011;47216;42.656;23.232;2022-11-20T08:26:29;4.93;;;1.50;;
61344;SDS011;47216;42.656;23.232;2022-11-20T08:28:56;2.37;;;0.93;;
61344;SDS011;47216;42.656;23.232;2022-11-20T08:31:23;3.10;;;1.07;;
61344;SDS011;47216;42.656;23.232;2022-11-20T08:33:51;2.40;;;1.30;;
61344;SDS011;47216;42.656;23.232;2022-11-20T08:36:19;4.10;;;1.37;;
61344;SDS011;47216;42.656;23.232;2022-11-20T08:38:48;2.83;;;1.40;;
61344;SDS011;47216;42.656;23.232;2022-11-20T08:41:15;3.40;;;1.23;;
61344;SDS011;47216;42.656;23.232;2022-11-20T08:43:52;4.13;;;1.40;;
61344;SDS011;47216;42.656;23.232;2022-11-20T08:46:20;8.23;;;1.40;;
61344;SDS011;47216;42.656;23.232;2022-11-20T08:48:48;5.90;;;1.90;;
61344;SDS011;47216;42.656;23.232;2022-11-20T08:51:14;4.97;;;1.53;;
61344;SDS011;47216;42.656;23.232;2022-11-20T08:53:42;8.23;;;2.37;;
61344;SDS011;47216;42.656;23.232;2022-11-20T08:56:10;7.77;;;2.67;;
61344;SDS011;47216;42.656;23.232;2022-11-20T08:58:37;3.40;;;1.90;;
61344;SDS011;47216;42.656;23.232;2022-11-20T09:01:04;5.00;;;2.10;;
61344;SDS011;47216;42.656;23.232;2022-11-20T09:03:31;11.13;;;2.43;;
61344;SDS011;47216;42.656;23.232;2022-11-20T09:05:58;5.00;;;1.60;;
61344;SDS011;47216;42.656;23.232;2022-11-20T09:08:26;7.20;;;2.20;;
61344;SDS011;47216;42.656;23.232;2022-11-20T09:10:53;5.10;;;1.80;;
61344;SDS011;47216;42.656;23.232;2022-11-20T09:13:22;3.50;;;1.40;;
61344;SDS011;47216;42.656;23.232;2022-11-20T09:15:52;3.43;;;1.43;;
61344;SDS011;47216;42.656;23.232;2022-11-20T09:18:20;3.10;;;1.67;;
61344;SDS011;47216;42.656;23.232;2022-11-20T09:20:47;4.63;;;1.40;;
61344;SDS011;47216;42.656;23.232;2022-11-20T09:23:14;2.97;;;1.60;;
61344;SDS011;47216;42.656;23.232;2022-11-20T09:25:41;2.83;;;1.20;;
61344;SDS011;47216;42.656;23.232;2022-11-20T09:28:08;7.13;;;1.60;;
61344;SDS011;47216;42.656;23.232;2022-11-20T09:30:36;5.00;;;1.03;;
61344;SDS011;47216;42.656;23.232;2022-11-20T09:33:03;4.53;;;1.33;;
61344;SDS011;47216;42.656;23.232;2022-11-20T09:35:31;3.60;;;1.37;;
61344;SDS011;47216;42.656;23.232;2022-11-20T09:37:57;2.50;;;1.10;;
61344;SDS011;47216;42.656;23.232;2022-11-20T09:40:25;3.70;;;1.70;;
61344;SDS011;47216;42.656;23.232;2022-11-20T09:42:55;1.70;;;1.20;;
61344;SDS011;47216;42.656;23.232;2022-11-20T09:48:40;7.50;;;2.10;;
61344;SDS011;47216;42.656;23.232;2022-11-20T09:51:16;7.10;;;1.50;;
61344;SDS011;47216;42.656;23.232;2022-11-20T09:53:56;3.93;;;1.50;;
61344;SDS011;47216;42.656;23.232;2022-11-20T09:56:33;5.27;;;2.90;;
61344;SDS011;47216;42.656;23.232;2022-11-20T09:59:03;6.87;;;1.90;;
61344;SDS011;47216;42.656;23.232;2022-11-20T10:01:34;9.47;;;2.07;;
61344;SDS011;47216;42.656;23.232;2022-11-20T10:04:05;4.63;;;1.93;;
61344;SDS011;47216;42.656;23.232;2022-11-20T10:06:37;10.03;;;2.30;;
61344;SDS011;47216;42.656;23.232;2022-11-20T10:09:15;6.40;;;2.53;;
61344;SDS011;47216;42.656;23.232;2022-11-20T10:11:48;8.53;;;1.83;;
61344;SDS011;47216;42.656;23.232;2022-11-20T10:14:26;6.77;;;2.57;;
61344;SDS011;47216;42.656;23.232;2022-11-20T10:17:02;8.63;;;2.00;;
61344;SDS011;47216;42.656;23.232;2022-11-20T10:19:44;8.03;;;2.27;;
61344;SDS011;47216;42.656;23.232;2022-11-20T10:22:25;3.97;;;1.70;;
61344;SDS011;47216;42.656;23.232;2022-11-20T10:25:02;7.70;;;2.40;;
61344;SDS011;47216;42.656;23.232;2022-11-20T10:30:37;6.87;;;2.50;;
61344;SDS011;47216;42.656;23.232;2022-11-20T10:33:10;10.17;;;2.20;;
61344;SDS011;47216;42.656;23.232;2022-11-20T10:35:44;7.20;;;2.13;;
61344;SDS011;47216;42.656;23.232;2022-11-20T10:38:16;5.53;;;2.20;;
61344;SDS011;47216;42.656;23.232;2022-11-20T10:40:48;10.87;;;3.40;;
61344;SDS011;47216;42.656;23.232;2022-11-20T10:43:18;10.83;;;3.00;;
61344;SDS011;47216;42.656;23.232;2022-11-20T10:45:49;9.40;;;2.57;;
61344;SDS011;47216;42.656;23.232;2022-11-20T10:48:20;7.67;;;2.90;;
61344;SDS011;47216;42.656;23.232;2022-11-20T10:53:51;14.43;;;4.30;;
61344;SDS011;47216;42.656;23.232;2022-11-20T10:56:25;6.10;;;2.00;;
61344;SDS011;47216;42.656;23.232;2022-11-20T10:59:03;5.17;;;1.80;;
61344;SDS011;47216;42.656;23.232;2022-11-20T11:01:49;7.23;;;1.70;;
61344;SDS011;47216;42.656;23.232;2022-11-20T11:04:18;6.40;;;2.10;;
61344;SDS011;47216;42.656;23.232;2022-11-20T11:06:58;3.00;;;1.20;;
61344;SDS011;47216;42.656;23.232;2022-11-20T11:09:35;2.83;;;1.57;;
61344;SDS011;47216;42.656;23.232;2022-11-20T11:12:06;4.03;;;1.33;;
61344;SDS011;47216;42.656;23.232;2022-11-20T11:14:41;4.70;;;1.37;;
61344;SDS011;47216;42.656;23.232;2022-11-20T11:17:25;3.73;;;1.97;;
61344;SDS011;47216;42.656;23.232;2022-11-20T11:19:57;2.17;;;1.10;;
61344;SDS011;47216;42.656;23.232;2022-11-20T11:22:30;2.53;;;1.23;;
61344;SDS011;47216;42.656;23.232;2022-11-20T11:24:58;3.03;;;1.73;;
61344;SDS011;47216;42.656;23.232;2022-11-20T11:27:25;5.93;;;1.13;;
61344;SDS011;47216;42.656;23.232;2022-11-20T11:30:01;3.87;;;1.70;;
61344;SDS011;47216;42.656;23.232;2022-11-20T11:32:39;4.23;;;2.10;;
61344;SDS011;47216;42.656;23.232;2022-11-20T11:35:06;3.57;;;1.70;;
61344;SDS011;47216;42.656;23.232;2022-11-20T11:37:46;3.67;;;1.20;;
61344;SDS011;47216;42.656;23.232;2022-11-20T11:40:14;1.20;;;0.67;;
61344;SDS011;47216;42.656;23.232;2022-11-20T11:42:42;2.43;;;0.80;;
61344;SDS011;47216;42.656;23.232;2022-11-20T11:45:11;2.33;;;0.80;;
61344;SDS011;47216;42.656;23.232;2022-11-20T11:47:43;2.93;;;0.80;;
61344;SDS011;47216;42.656;23.232;2022-11-20T11:50:17;4.53;;;2.73;;
61344;SDS011;47216;42.656;23.232;2022-11-20T11:52:50;3.33;;;1.30;;
61344;SDS011;47216;42.656;23.232;2022-11-20T11:55:25;4.30;;;1.20;;
61344;SDS011;47216;42.656;23.232;2022-11-20T11:57:59;2.37;;;1.10;;
61344;SDS011;47216;42.656;23.232;2022-11-20T12:00:35;6.33;;;1.10;;
61344;SDS011;47216;42.656;23.232;2022-11-20T12:03:08;0.80;;;0.80;;
61344;SDS011;47216;42.656;23.232;2022-11-20T12:05:40;2.37;;;0.83;;
61344;SDS011;47216;42.656;23.232;2022-11-20T12:08:12;3.47;;;0.70;;
61344;SDS011;47216;42.656;23.232;2022-11-20T12:10:45;1.17;;;0.60;;
61344;SDS011;47216;42.656;23.232;2022-11-20T12:13:18;2.33;;;1.03;;
61344;SDS011;47216;42.656;23.232;2022-11-20T12:15:52;1.53;;;0.87;;
61344;SDS011;47216;42.656;23.232;2022-11-20T12:18:20;2.10;;;0.80;;
61344;SDS011;47216;42.656;23.232;2022-11-20T12:20:53;3.20;;;0.73;;
61344;SDS011;47216;42.656;23.232;2022-11-20T12:23:28;2.33;;;0.70;;
61344;SDS011;47216;42.656;23.232;2022-11-20T12:26:03;1.77;;;0.60;;
61344;SDS011;47216;42.656;23.232;2022-11-20T12:28:43;4.93;;;1.43;;
61344;SDS011;47216;42.656;23.232;2022-11-20T12:31:26;3.83;;;1.93;;
61344;SDS011;47216;42.656;23.232;2022-11-20T12:37:07;5.13;;;1.53;;
61344;SDS011;47216;42.656;23.232;2022-11-20T12:39:42;2.17;;;0.80;;
61344;SDS011;47216;42.656;23.232;2022-11-20T12:42:18;5.47;;;0.97;;
61344;SDS011;47216;42.656;23.232;2022-11-20T12:45:19;3.20;;;0.80;;
61344;SDS011;47216;42.656;23.232;2022-11-20T12:48:06;1.77;;;0.70;;
61344;SDS011;47216;42.656;23.232;2022-11-20T12:51:13;1.47;;;0.60;;
61344;SDS011;47216;42.656;23.232;2022-11-20T12:53:55;1.10;;;0.80;;
61344;SDS011;47216;42.656;23.232;2022-11-20T12:56:37;1.07;;;0.73;;
61344;SDS011;47216;42.656;23.232;2022-11-20T12:59:17;1.73;;;0.60;;
61344;SDS011;47216;42.656;23.232;2022-11-20T13:02:01;2.57;;;1.20;;
61344;SDS011;47216;42.656;23.232;2022-11-20T13:04:51;2.43;;;1.13;;
61344;SDS011;47216;42.656;23.232;2022-11-20T13:07:28;4.37;;;1.00;;
61344;SDS011;47216;42.656;23.232;2022-11-20T13:09:58;5.73;;;2.43;;
61344;SDS011;47216;42.656;23.232;2022-11-20T13:12:29;3.90;;;1.17;;
61344;SDS011;47216;42.656;23.232;2022-11-20T13:15:05;6.67;;;1.53;;
61344;SDS011;47216;42.656;23.232;2022-11-20T13:17:41;3.00;;;1.30;;
61344;SDS011;47216;42.656;23.232;2022-11-20T13:20:16;3.83;;;1.20;;
61344;SDS011;47216;42.656;23.232;2022-11-20T13:22:45;8.70;;;3.33;;
61344;SDS011;47216;42.656;23.232;2022-11-20T13:25:23;6.10;;;3.60;;
61344;SDS011;47216;42.656;23.232;2022-11-20T13:27:52;7.73;;;3.50;;
61344;SDS011;47216;42.656;23.232;2022-11-20T13:30:20;7.50;;;3.30;;
61344;SDS011;47216;42.656;23.232;2022-11-20T13:32:49;7.57;;;3.60;;
61344;SDS011;47216;42.656;23.232;2022-11-20T13:35:28;4.03;;;2.80;;
61344;SDS011;47216;42.656;23.232;2022-11-20T13:38:01;4.53;;;2.43;;
61344;SDS011;47216;42.656;23.232;2022-11-20T13:40:30;8.67;;;3.07;;
61344;SDS011;47216;42.656;23.232;2022-11-20T13:43:04;5.23;;;2.77;;
61344;SDS011;47216;42.656;23.232;2022-11-20T13:45:37;6.30;;;3.53;;
61344;SDS011;47216;42.656;23.232;2022-11-20T13:48:04;10.13;;;4.80;;
61344;SDS011;47216;42.656;23.232;2022-11-20T13:50:46;16.47;;;9.00;;
61344;SDS011;47216;42.656;23.232;2022-11-20T13:53:25;22.63;;;9.07;;
61344;SDS011;47216;42.656;23.232;2022-11-20T13:56:01;17.43;;;7.20;;
61344;SDS011;47216;42.656;23.232;2022-11-20T13:58:40;18.23;;;9.03;;
61344;SDS011;47216;42.656;23.232;2022-11-20T14:01:15;15.00;;;8.07;;
61344;SDS011;47216;42.656;23.232;2022-11-20T14:03:46;15.93;;;6.20;;
61344;SDS011;47216;42.656;23.232;2022-11-20T14:06:14;21.53;;;10.10;;
61344;SDS011;47216;42.656;23.232;2022-11-20T14:08:52;18.73;;;9.37;;
61344;SDS011;47216;42.656;23.232;2022-11-20T14:11:19;15.83;;;7.93;;
61344;SDS011;47216;42.656;23.232;2022-11-20T14:13:59;11.03;;;6.87;;
61344;SDS011;47216;42.656;23.232;2022-11-20T14:16:29;8.13;;;4.87;;
61344;SDS011;47216;42.656;23.232;2022-11-20T14:19:08;7.97;;;4.37;;
61344;SDS011;47216;42.656;23.232;2022-11-20T14:21:51;8.77;;;3.80;;
61344;SDS011;47216;42.656;23.232;2022-11-20T14:24:18;7.87;;;3.93;;
61344;SDS011;47216;42.656;23.232;2022-11-20T14:26:46;5.17;;;3.80;;
61344;SDS011;47216;42.656;23.232;2022-11-20T14:29:16;9.53;;;5.83;;
61344;SDS011;47216;42.656;23.232;2022-11-20T14:31:44;10.27;;;6.27;;
61344;SDS011;47216;42.656;23.232;2022-11-20T14:34:14;10.40;;;5.53;;
61344;SDS011;47216;42.656;23.232;2022-11-20T14:36:44;8.00;;;3.70;;
61344;SDS011;47216;42.656;23.232;2022-11-20T14:39:11;6.93;;;4.00;;
61344;SDS011;47216;42.656;23.232;2022-11-20T14:41:49;4.47;;;2.87;;
61344;SDS011;47216;42.656;23.232;2022-11-20T14:44:22;5.23;;;3.73;;
61344;SDS011;47216;42.656;23.232;2022-11-20T14:46:52;10.70;;;4.50;;
61344;SDS011;47216;42.656;23.232;2022-11-20T14:49:20;6.97;;;3.30;;
61344;SDS011;47216;42.656;23.232;2022-11-20T14:51:58;7.33;;;2.50;;
61344;SDS011;47216;42.656;23.232;2022-11-20T14:54:25;4.87;;;2.50;;
61344;SDS011;47216;42.656;23.232;2022-11-20T14:56:53;6.87;;;3.20;;
61344;SDS011;47216;42.656;23.232;2022-11-20T14:59:24;5.83;;;3.23;;
61344;SDS011;47216;42.656;23.232;2022-11-20T15:01:54;4.90;;;2.10;;